createdAt,value
2023-04-02T00:00:25.972Z,36.24
2023-04-02T00:01:37.060Z,36.39
2023-04-02T00:02:48.152Z,36.25
2023-04-02T00:04:15.675Z,36.39
2023-04-02T00:05:44.099Z,36.48
2023-04-02T00:06:47.775Z,36.55
2023-04-02T00:07:53.723Z,36.55
2023-04-02T00:08:58.561Z,36.55
2023-04-02T00:10:02.212Z,36.57
2023-04-02T00:11:07.146Z,36.59
2023-04-02T00:12:18.720Z,36.44
2023-04-02T00:13:30.362Z,36.55
2023-04-02T00:14:35.105Z,36.37
2023-04-02T00:15:39.318Z,36.51
2023-04-02T00:16:43.484Z,36.26
2023-04-02T00:17:47.187Z,36.49
2023-04-02T00:18:55.346Z,36.57
2023-04-02T00:20:01.226Z,36.51
2023-04-02T00:21:20.188Z,36.54
2023-04-02T00:22:29.962Z,36.65
2023-04-02T00:23:33.688Z,36.68
2023-04-02T00:24:39.986Z,36.53
2023-04-02T00:25:45.572Z,36.64
2023-04-02T00:26:51.215Z,36.49
2023-04-02T00:27:56.876Z,36.56
2023-04-02T00:29:12.130Z,36.72
2023-04-02T00:30:17.258Z,36.66
2023-04-02T00:31:21.673Z,36.80
2023-04-02T00:32:28.063Z,36.87
2023-04-02T00:33:33.982Z,36.91
2023-04-02T00:34:41.344Z,36.84
2023-04-02T00:35:45.061Z,36.69
2023-04-02T00:36:49.658Z,36.94
2023-04-02T00:37:53.666Z,36.97
2023-04-02T00:38:59.911Z,37.03
2023-04-02T00:40:08.023Z,36.98
2023-04-02T00:41:17.042Z,36.99
2023-04-02T00:42:21.567Z,37.01
2023-04-02T00:43:28.717Z,37.02
2023-04-02T00:44:33.381Z,37.07
2023-04-02T00:45:39.270Z,37.07
2023-04-02T00:46:45.446Z,37.09
2023-04-02T00:47:49.191Z,37.11
2023-04-02T00:48:58.457Z,37.08
2023-04-02T00:50:07.294Z,37.05
2023-04-02T00:51:18.806Z,36.96
2023-04-02T00:52:27.012Z,36.99
2023-04-02T00:53:31.801Z,37.04
2023-04-02T00:54:43.122Z,37.10
2023-04-02T00:55:47.136Z,37.06
2023-04-02T00:56:54.450Z,36.98
2023-04-02T00:58:00.387Z,37.01
2023-04-02T00:59:05.997Z,37.02
2023-04-02T01:00:21.304Z,37.02
2023-04-02T01:01:27.315Z,37.05
2023-04-02T01:02:34.291Z,37.04
2023-04-02T01:03:38.221Z,37.09
2023-04-02T01:04:42.787Z,36.97
2023-04-02T01:05:48.457Z,37.06
2023-04-02T01:06:52.195Z,37.04
2023-04-02T01:08:09.642Z,37.04
2023-04-02T01:09:28.693Z,37.06
2023-04-02T01:10:52.768Z,37.06
2023-04-02T01:12:11.221Z,36.97
2023-04-02T01:13:26.308Z,37.12
2023-04-02T01:14:45.557Z,37.12
2023-04-02T01:15:57.205Z,37.04
2023-04-02T01:17:10.887Z,37.08
2023-04-02T01:18:43.343Z,37.13
2023-04-02T01:20:19.418Z,37.19
2023-04-02T01:21:54.683Z,37.29
2023-04-02T01:23:05.286Z,37.27
2023-04-02T01:24:11.718Z,37.31
2023-04-02T01:25:20.027Z,37.38
2023-04-02T01:26:35.507Z,37.43
2023-04-02T01:27:44.599Z,37.46
2023-04-02T01:29:06.400Z,37.51
2023-04-02T01:30:11.929Z,37.35
2023-04-02T01:31:16.931Z,37.52
2023-04-02T01:32:24.166Z,37.57
2023-04-02T01:33:31.894Z,37.51
2023-04-02T01:34:36.780Z,37.58
2023-04-02T01:35:45.620Z,37.57
2023-04-02T01:37:03.097Z,37.54
2023-04-02T01:38:14.414Z,37.53
2023-04-02T01:39:32.444Z,37.48
2023-04-02T01:40:40.578Z,37.43
2023-04-02T01:41:52.352Z,37.38
2023-04-02T01:43:05.165Z,37.41
2023-04-02T01:44:14.830Z,37.33
2023-04-02T01:45:21.203Z,37.43
2023-04-02T01:46:30.302Z,37.52
2023-04-02T01:47:34.367Z,37.65
2023-04-02T01:48:41.085Z,37.72
2023-04-02T01:49:45.660Z,37.72
2023-04-02T01:50:52.506Z,37.74
2023-04-02T01:51:57.018Z,37.72
2023-04-02T01:53:03.136Z,37.65
2023-04-02T01:54:07.171Z,37.65
2023-04-02T01:55:13.151Z,37.60
2023-04-02T01:56:17.426Z,37.48
2023-04-02T01:57:21.178Z,37.54
2023-04-02T01:58:27.110Z,37.53
2023-04-02T01:59:32.758Z,37.47
2023-04-02T02:00:38.831Z,37.46
2023-04-02T02:01:46.713Z,37.60
2023-04-02T02:02:52.466Z,37.55
2023-04-02T02:03:56.354Z,37.64
2023-04-02T02:05:00.109Z,37.60
2023-04-02T02:06:06.513Z,37.57
2023-04-02T02:07:17.146Z,37.65
2023-04-02T02:08:32.579Z,37.66
2023-04-02T02:09:37.103Z,37.62
2023-04-02T02:10:40.922Z,37.42
2023-04-02T02:11:44.617Z,37.56
2023-04-02T02:12:48.808Z,37.48
2023-04-02T02:13:55.849Z,37.57
2023-04-02T02:15:01.104Z,37.57
2023-04-02T02:16:05.986Z,37.56
2023-04-02T02:17:14.899Z,37.59
2023-04-02T02:18:22.348Z,37.61
2023-04-02T02:19:29.929Z,37.61
2023-04-02T02:20:35.080Z,37.60
2023-04-02T02:21:40.999Z,37.77
2023-04-02T02:22:47.131Z,37.65
2023-04-02T02:23:52.980Z,37.73
2023-04-02T02:24:58.345Z,37.63
2023-04-02T02:26:01.989Z,37.87
2023-04-02T02:27:37.497Z,37.91
2023-04-02T02:28:43.616Z,37.91
2023-04-02T02:29:50.310Z,37.86
2023-04-02T02:30:58.871Z,37.90
2023-04-02T02:32:04.527Z,37.90
2023-04-02T02:33:15.415Z,37.90
2023-04-02T02:34:25.903Z,37.92
2023-04-02T02:35:35.011Z,37.85
2023-04-02T02:36:48.082Z,37.98
2023-04-02T02:37:58.207Z,37.79
2023-04-02T02:39:06.194Z,37.98
2023-04-02T02:40:16.835Z,37.96
2023-04-02T02:41:26.675Z,37.81
2023-04-02T02:42:36.266Z,37.82
2023-04-02T02:43:44.524Z,37.72
2023-04-02T02:44:50.712Z,37.82
2023-04-02T02:45:58.370Z,37.80
2023-04-02T02:47:04.456Z,37.77
2023-04-02T02:48:14.524Z,37.73
2023-04-02T02:49:22.108Z,37.70
2023-04-02T02:50:29.502Z,37.53
2023-04-02T02:51:44.949Z,37.57
2023-04-02T02:52:53.694Z,37.72
2023-04-02T02:54:03.852Z,37.73
2023-04-02T02:55:10.900Z,37.58
2023-04-02T02:56:15.246Z,37.64
2023-04-02T02:57:22.451Z,37.71
2023-04-02T02:58:29.058Z,37.59
2023-04-02T02:59:33.139Z,37.78
2023-04-02T03:00:38.299Z,37.84
2023-04-02T03:01:45.250Z,37.89
2023-04-02T03:02:49.636Z,37.99
2023-04-02T03:03:55.660Z,38.04
2023-04-02T03:04:59.489Z,38.05
2023-04-02T03:06:06.406Z,38.07
2023-04-02T03:07:10.406Z,38.07
2023-04-02T03:08:22.053Z,38.09
2023-04-02T03:09:38.001Z,38.08
2023-04-02T03:10:48.494Z,38.18
2023-04-02T03:11:58.004Z,38.22
2023-04-02T03:13:08.865Z,38.16
2023-04-02T03:14:21.071Z,38.17
2023-04-02T03:15:34.059Z,38.08
2023-04-02T03:16:42.241Z,38.13
2023-04-02T03:17:52.261Z,37.89
2023-04-02T03:18:59.848Z,38.02
2023-04-02T03:20:11.578Z,38.18
2023-04-02T03:21:26.750Z,38.29
2023-04-02T03:22:36.386Z,38.43
2023-04-02T03:23:44.563Z,38.53
2023-04-02T03:24:56.410Z,38.57
2023-04-02T03:26:05.162Z,38.58
2023-04-02T03:27:16.119Z,38.63
2023-04-02T03:28:24.329Z,38.66
2023-04-02T03:29:30.966Z,38.59
2023-04-02T03:30:41.152Z,38.66
2023-04-02T03:31:48.753Z,38.69
2023-04-02T03:33:00.147Z,38.68
2023-04-02T03:34:10.447Z,38.56
2023-04-02T03:35:23.206Z,38.40
2023-04-02T03:36:31.571Z,38.52
2023-04-02T03:37:43.558Z,38.40
2023-04-02T03:38:51.369Z,38.51
2023-04-02T03:40:00.322Z,38.46
2023-04-02T03:41:14.401Z,38.52
2023-04-02T03:42:22.503Z,38.55
2023-04-02T03:43:27.918Z,38.59
2023-04-02T03:44:36.045Z,38.39
2023-04-02T03:45:42.818Z,38.60
2023-04-02T03:46:50.010Z,38.67
2023-04-02T03:48:01.663Z,38.71
2023-04-02T03:49:10.533Z,38.65
2023-04-02T03:50:20.979Z,38.49
2023-04-02T03:51:28.452Z,38.41
2023-04-02T03:52:35.885Z,38.62
2023-04-02T03:53:39.965Z,38.54
2023-04-02T03:54:54.066Z,38.57
2023-04-02T03:55:59.473Z,38.70
2023-04-02T03:57:03.637Z,38.75
2023-04-02T03:58:14.698Z,38.66
2023-04-02T03:59:27.603Z,38.70
2023-04-02T04:00:38.337Z,38.60
2023-04-02T04:01:48.795Z,38.60
2023-04-02T04:02:57.642Z,38.45
2023-04-02T04:04:08.713Z,38.79
2023-04-02T04:05:23.900Z,38.95
2023-04-02T04:06:29.851Z,38.73
2023-04-02T04:07:40.232Z,38.91
2023-04-02T04:08:48.050Z,38.98
2023-04-02T04:09:54.241Z,39.07
2023-04-02T04:11:02.628Z,39.05
2023-04-02T04:12:15.699Z,39.21
2023-04-02T04:13:26.702Z,39.29
2023-04-02T04:14:33.667Z,39.45
2023-04-02T04:15:42.995Z,39.37
2023-04-02T04:16:52.237Z,39.31
2023-04-02T04:18:03.736Z,39.16
2023-04-02T04:19:16.271Z,38.82
2023-04-02T04:20:24.839Z,38.90
2023-04-02T04:21:29.621Z,38.91
2023-04-02T04:22:33.345Z,39.07
2023-04-02T04:23:39.250Z,39.05
2023-04-02T04:24:42.931Z,38.94
2023-04-02T04:25:46.638Z,39.06
2023-04-02T04:26:56.323Z,39.09
2023-04-02T04:28:08.518Z,38.89
2023-04-02T04:29:26.899Z,39.06
2023-04-02T04:30:35.534Z,38.38
2023-04-02T04:31:44.379Z,38.91
2023-04-02T04:32:51.116Z,38.92
2023-04-02T04:33:59.527Z,38.50
2023-04-02T04:35:08.537Z,39.05
2023-04-02T04:36:22.640Z,39.18
2023-04-02T04:37:29.467Z,38.80
2023-04-02T04:38:35.748Z,39.12
2023-04-02T04:39:45.618Z,39.07
2023-04-02T04:40:52.198Z,39.29
2023-04-02T04:41:58.103Z,39.49
2023-04-02T04:43:06.997Z,39.59
2023-04-02T04:44:20.173Z,39.70
2023-04-02T04:45:40.433Z,39.50
2023-04-02T04:46:48.044Z,39.41
2023-04-02T04:47:56.685Z,39.49
2023-04-02T04:49:09.325Z,39.47
2023-04-02T04:50:18.770Z,39.59
2023-04-02T04:51:26.207Z,38.83
2023-04-02T04:52:34.299Z,38.94
2023-04-02T04:53:48.353Z,39.17
2023-04-02T04:54:52.236Z,39.44
2023-04-02T04:56:06.019Z,39.04
2023-04-02T04:57:30.186Z,39.18
2023-04-02T04:58:37.239Z,38.62
2023-04-02T04:59:45.237Z,38.78
2023-04-02T05:00:57.306Z,38.71
2023-04-02T05:02:06.177Z,38.91
2023-04-02T05:03:18.304Z,39.29
2023-04-02T05:04:27.412Z,39.09
2023-04-02T05:05:34.798Z,39.43
2023-04-02T05:06:43.363Z,39.55
2023-04-02T05:07:51.711Z,39.06
2023-04-02T05:09:00.176Z,39.13
2023-04-02T05:10:12.223Z,38.95
2023-04-02T05:11:24.539Z,39.42
2023-04-02T05:12:34.449Z,39.42
2023-04-02T05:13:45.028Z,39.30
2023-04-02T05:14:54.561Z,39.57
2023-04-02T05:16:08.301Z,39.74
2023-04-02T05:17:17.839Z,39.60
2023-04-02T05:18:27.229Z,39.59
2023-04-02T05:19:39.760Z,39.20
2023-04-02T05:20:48.555Z,39.05
2023-04-02T05:21:56.269Z,38.67
2023-04-02T05:23:05.496Z,39.09
2023-04-02T05:24:34.112Z,38.82
2023-04-02T05:25:38.858Z,39.30
2023-04-02T05:26:46.454Z,39.30
2023-04-02T05:27:54.124Z,39.54
2023-04-02T05:29:03.470Z,39.75
2023-04-02T05:30:15.766Z,39.97
2023-04-02T05:31:24.508Z,40.07
2023-04-02T05:32:32.342Z,39.87
2023-04-02T05:33:37.470Z,39.44
2023-04-02T05:34:46.307Z,39.67
2023-04-02T05:35:55.051Z,39.56
2023-04-02T05:36:59.125Z,39.86
2023-04-02T05:38:03.750Z,39.86
2023-04-02T05:39:10.903Z,39.79
2023-04-02T05:40:20.114Z,39.76
2023-04-02T05:41:27.944Z,39.67
2023-04-02T05:42:37.058Z,39.92
2023-04-02T05:43:46.424Z,39.67
2023-04-02T05:45:02.472Z,40.14
2023-04-02T05:46:16.270Z,40.17
2023-04-02T05:47:24.605Z,40.10
2023-04-02T05:48:33.066Z,40.24
2023-04-02T05:49:45.382Z,40.22
2023-04-02T05:50:52.038Z,40.37
2023-04-02T05:51:59.676Z,40.04
2023-04-02T05:53:11.523Z,40.13
2023-04-02T05:54:23.501Z,39.63
2023-04-02T05:55:42.181Z,39.61
2023-04-02T05:56:49.868Z,39.62
2023-04-02T05:58:21.317Z,39.68
2023-04-02T05:59:27.961Z,40.14
2023-04-02T06:00:48.511Z,40.20
2023-04-02T06:01:57.857Z,39.61
2023-04-02T06:03:07.178Z,39.26
2023-04-02T06:04:20.593Z,39.81
2023-04-02T06:05:29.527Z,39.97
2023-04-02T06:06:49.707Z,39.94
2023-04-02T06:07:58.699Z,39.90
2023-04-02T06:09:12.339Z,39.90
2023-04-02T06:10:20.747Z,40.22
2023-04-02T06:11:29.349Z,40.40
2023-04-02T06:12:40.018Z,40.47
2023-04-02T06:13:43.741Z,40.58
2023-04-02T06:14:47.592Z,40.41
2023-04-02T06:15:51.398Z,40.44
2023-04-02T06:16:55.263Z,40.61
2023-04-02T06:18:09.655Z,40.19
2023-04-02T06:19:23.234Z,40.22
2023-04-02T06:20:28.858Z,40.52
2023-04-02T06:21:33.274Z,40.17
2023-04-02T06:22:39.838Z,40.19
2023-04-02T06:23:48.068Z,40.01
2023-04-02T06:24:58.589Z,40.11
2023-04-02T06:26:05.525Z,40.14
2023-04-02T06:27:15.704Z,40.42
2023-04-02T06:28:25.272Z,39.74
2023-04-02T06:29:33.955Z,40.17
2023-04-02T06:30:41.934Z,40.48
2023-04-02T06:31:49.566Z,40.35
2023-04-02T06:32:53.345Z,40.25
2023-04-02T06:33:57.887Z,40.40
2023-04-02T06:35:01.593Z,40.26
2023-04-02T06:36:09.962Z,40.16
2023-04-02T06:37:22.063Z,40.45
2023-04-02T06:38:30.556Z,40.40
2023-04-02T06:39:34.273Z,40.51
2023-04-02T06:40:43.276Z,40.55
2023-04-02T06:41:47.174Z,40.40
2023-04-02T06:42:52.702Z,40.24
2023-04-02T06:43:59.067Z,40.29
2023-04-02T06:45:03.224Z,40.54
2023-04-02T06:46:16.258Z,40.49
2023-04-02T06:47:28.008Z,40.46
2023-04-02T06:48:34.102Z,40.41
2023-04-02T06:49:43.233Z,40.49
2023-04-02T06:50:51.959Z,40.30
2023-04-02T06:51:59.431Z,40.07
2023-04-02T06:53:05.889Z,39.85
2023-04-02T06:54:15.527Z,39.61
2023-04-02T06:55:39.976Z,39.57
2023-04-02T06:56:46.917Z,39.81
2023-04-02T06:57:50.568Z,39.66
2023-04-02T06:58:54.278Z,39.55
2023-04-02T06:59:57.878Z,39.93
2023-04-02T07:01:01.584Z,39.99
2023-04-02T07:02:16.506Z,40.05
2023-04-02T07:03:25.226Z,40.11
2023-04-02T07:04:28.974Z,39.81
2023-04-02T07:05:32.899Z,39.89
2023-04-02T07:06:36.718Z,39.66
2023-04-02T07:07:42.097Z,40.09
2023-04-02T07:08:45.839Z,40.12
2023-04-02T07:09:49.447Z,39.71
2023-04-02T07:10:53.064Z,40.06
2023-04-02T07:11:56.712Z,40.34
2023-04-02T07:13:00.430Z,40.04
2023-04-02T07:14:04.320Z,39.97
2023-04-02T07:15:08.762Z,39.88
2023-04-02T07:16:17.016Z,40.07
2023-04-02T07:17:21.550Z,40.05
2023-04-02T07:18:28.453Z,40.12
2023-04-02T07:19:32.185Z,40.19
2023-04-02T07:20:36.781Z,40.22
2023-04-02T07:21:40.374Z,39.82
2023-04-02T07:22:45.686Z,40.10
2023-04-02T07:23:49.384Z,39.79
2023-04-02T07:24:53.265Z,39.74
2023-04-02T07:25:57.776Z,39.70
2023-04-02T07:27:01.443Z,39.81
2023-04-02T07:28:06.367Z,39.89
2023-04-02T07:29:14.954Z,40.16
2023-04-02T07:30:18.977Z,40.41
2023-04-02T07:31:25.013Z,40.46
2023-04-02T07:32:28.752Z,40.59
2023-04-02T07:33:32.584Z,40.59
2023-04-02T07:34:36.287Z,40.41
2023-04-02T07:35:39.965Z,40.59
2023-04-02T07:36:43.725Z,40.42
2023-04-02T07:37:48.983Z,40.26
2023-04-02T07:38:52.948Z,40.28
2023-04-02T07:39:56.681Z,40.30
2023-04-02T07:41:06.616Z,40.10
2023-04-02T07:42:10.687Z,40.49
2023-04-02T07:43:14.352Z,40.67
2023-04-02T07:44:17.978Z,40.70
2023-04-02T07:45:21.642Z,40.12
2023-04-02T07:46:30.914Z,40.37
2023-04-02T07:47:34.590Z,40.11
2023-04-02T07:48:38.281Z,40.09
2023-04-02T07:49:41.932Z,40.30
2023-04-02T07:50:45.492Z,40.42
2023-04-02T07:51:49.211Z,40.57
2023-04-02T07:52:54.520Z,40.31
2023-04-02T07:53:58.136Z,40.58
2023-04-02T07:55:01.931Z,40.65
2023-04-02T07:56:06.963Z,40.70
2023-04-02T07:57:10.615Z,40.47
2023-04-02T07:58:16.996Z,40.74
2023-04-02T07:59:20.606Z,40.86
2023-04-02T08:00:24.554Z,40.76
2023-04-02T08:01:29.201Z,40.80
2023-04-02T08:02:33.993Z,40.88
2023-04-02T08:03:37.858Z,40.75
2023-04-02T08:04:41.538Z,40.98
2023-04-02T08:05:50.075Z,40.44
2023-04-02T08:06:53.754Z,40.41
2023-04-02T08:07:59.088Z,40.57
2023-04-02T08:09:02.738Z,40.62
2023-04-02T08:10:07.242Z,40.70
2023-04-02T08:11:11.424Z,40.47
2023-04-02T08:12:15.535Z,40.33
2023-04-02T08:13:19.958Z,40.20
2023-04-02T08:14:23.564Z,40.64
2023-04-02T08:15:27.238Z,40.72
2023-04-02T08:16:45.122Z,40.90
2023-04-02T08:17:48.876Z,40.97
2023-04-02T08:18:52.822Z,40.96
2023-04-02T08:19:56.570Z,40.95
2023-04-02T08:21:00.839Z,40.58
2023-04-02T08:22:04.555Z,40.62
2023-04-02T08:23:14.899Z,40.49
2023-04-02T08:24:18.698Z,39.99
2023-04-02T08:25:22.283Z,40.45
2023-04-02T08:26:25.878Z,40.60
2023-04-02T08:27:29.462Z,40.62
2023-04-02T08:28:33.168Z,40.62
2023-04-02T08:29:36.788Z,40.80
2023-04-02T08:30:40.672Z,40.70
2023-04-02T08:31:44.327Z,40.52
2023-04-02T08:32:48.270Z,40.79
2023-04-02T08:33:51.976Z,40.76
2023-04-02T08:34:55.652Z,40.85
2023-04-02T08:35:59.484Z,41.01
2023-04-02T08:37:03.191Z,41.07
2023-04-02T08:38:07.036Z,40.74
2023-04-02T08:39:12.444Z,40.96
2023-04-02T08:40:24.446Z,41.07
2023-04-02T08:41:28.706Z,41.13
2023-04-02T08:42:39.853Z,41.14
2023-04-02T08:44:10.839Z,41.19
2023-04-02T08:45:25.454Z,41.13
2023-04-02T08:46:38.256Z,41.15
2023-04-02T08:47:43.678Z,41.14
2023-04-02T08:48:55.195Z,41.21
2023-04-02T08:50:02.429Z,40.96
2023-04-02T08:51:07.978Z,40.91
2023-04-02T08:52:22.959Z,40.86
2023-04-02T08:53:31.692Z,41.06
2023-04-02T08:54:38.187Z,41.08
2023-04-02T08:55:46.379Z,40.94
2023-04-02T08:56:56.296Z,41.12
2023-04-02T08:58:07.033Z,41.17
2023-04-02T08:59:21.934Z,40.89
2023-04-02T09:00:37.456Z,40.90
2023-04-02T09:01:49.776Z,41.00
2023-04-02T09:02:58.119Z,40.96
2023-04-02T09:04:03.238Z,40.97
2023-04-02T09:05:15.969Z,41.03
2023-04-02T09:06:21.883Z,40.84
2023-04-02T09:07:26.581Z,40.52
2023-04-02T09:08:32.199Z,40.45
2023-04-02T09:09:39.493Z,40.59
2023-04-02T09:10:49.840Z,40.72
2023-04-02T09:11:56.062Z,40.66
2023-04-02T09:13:00.728Z,40.85
2023-04-02T09:14:10.858Z,40.74
2023-04-02T09:15:31.821Z,40.74
2023-04-02T09:16:45.545Z,40.65
2023-04-02T09:17:53.961Z,40.74
2023-04-02T09:18:58.253Z,40.62
2023-04-02T09:20:08.373Z,40.51
2023-04-02T09:21:32.838Z,40.53
2023-04-02T09:22:36.533Z,40.38
2023-04-02T09:23:40.160Z,40.13
2023-04-02T09:24:45.507Z,40.39
2023-04-02T09:26:01.345Z,40.49
2023-04-02T09:27:19.183Z,40.56
2023-04-02T09:28:22.898Z,40.38
2023-04-02T09:29:50.333Z,40.36
2023-04-02T09:31:06.877Z,40.53
2023-04-02T09:32:40.377Z,40.44
2023-04-02T09:33:45.696Z,40.29
2023-04-02T09:34:49.354Z,40.38
2023-04-02T09:35:57.779Z,40.53
2023-04-02T09:37:10.077Z,40.44
2023-04-02T09:38:20.461Z,40.31
2023-04-02T09:39:25.773Z,40.33
2023-04-02T09:40:41.182Z,40.51
2023-04-02T09:41:48.177Z,40.37
2023-04-02T09:43:11.776Z,40.30
2023-04-02T09:44:21.360Z,40.51
2023-04-02T09:45:25.778Z,40.57
2023-04-02T09:46:29.492Z,40.56
2023-04-02T09:47:33.627Z,40.40
2023-04-02T09:48:39.705Z,40.07
2023-04-02T09:49:43.314Z,39.89
2023-04-02T09:50:46.904Z,40.06
2023-04-02T09:52:19.118Z,39.56
2023-04-02T09:53:31.094Z,39.91
2023-04-02T09:54:34.880Z,40.05
2023-04-02T09:55:40.421Z,40.07
2023-04-02T09:57:01.540Z,39.78
2023-04-02T09:58:14.578Z,39.64
2023-04-02T09:59:20.667Z,39.83
2023-04-02T10:00:41.805Z,39.80
2023-04-02T10:01:47.366Z,40.09
2023-04-02T10:03:04.022Z,40.00
2023-04-02T10:04:28.579Z,39.93
2023-04-02T10:06:51.349Z,39.96
2023-04-02T10:08:06.038Z,40.03
2023-04-02T10:09:31.198Z,39.85
2023-04-02T10:10:41.554Z,39.55
2023-04-02T10:11:46.701Z,39.73
2023-04-02T10:12:55.713Z,39.65
2023-04-02T10:14:02.047Z,39.45
2023-04-02T10:15:07.005Z,39.44
2023-04-02T10:16:14.718Z,39.54
2023-04-02T10:17:24.141Z,39.19
2023-04-02T10:18:41.184Z,39.46
2023-04-02T10:19:49.204Z,39.31
2023-04-02T10:20:55.196Z,39.19
2023-04-02T10:22:01.910Z,39.28
2023-04-02T10:23:06.524Z,39.16
2023-04-02T10:24:14.284Z,39.24
2023-04-02T10:25:20.344Z,39.19
2023-04-02T10:26:49.227Z,39.26
2023-04-02T10:27:59.605Z,39.20
2023-04-02T10:29:28.375Z,39.30
2023-04-02T10:30:39.457Z,39.03
2023-04-02T10:31:56.537Z,39.11
2023-04-02T10:33:04.152Z,38.83
2023-04-02T10:34:17.680Z,38.61
2023-04-02T10:35:33.585Z,38.78
2023-04-02T10:36:49.032Z,38.52
2023-04-02T10:38:18.832Z,38.51
2023-04-02T10:39:26.933Z,38.47
2023-04-02T10:40:37.415Z,38.41
2023-04-02T10:41:52.281Z,38.49
2023-04-02T10:43:10.861Z,38.63
2023-04-02T10:44:41.038Z,38.27
2023-04-02T10:45:49.662Z,38.55
2023-04-02T10:47:08.975Z,38.60
2023-04-02T10:48:22.659Z,38.63
2023-04-02T10:49:34.404Z,38.26
2023-04-02T10:50:46.851Z,38.40
2023-04-02T10:51:59.253Z,38.38
2023-04-02T10:53:11.828Z,38.42
2023-04-02T10:54:31.943Z,38.31
2023-04-02T10:55:38.097Z,38.21
2023-04-02T10:56:50.491Z,38.30
2023-04-02T10:58:01.118Z,38.36
2023-04-02T10:59:12.739Z,37.90
2023-04-02T11:00:23.298Z,37.95
2023-04-02T11:01:29.502Z,37.97
2023-04-02T11:02:39.354Z,37.90
2023-04-02T11:03:47.605Z,37.81
2023-04-02T11:04:55.411Z,37.94
2023-04-02T11:06:03.408Z,37.78
2023-04-02T11:07:14.383Z,37.92
2023-04-02T11:08:23.442Z,37.68
2023-04-02T11:09:32.327Z,37.61
2023-04-02T11:10:40.294Z,37.51
2023-04-02T11:11:47.506Z,37.34
2023-04-02T11:12:57.034Z,36.93
2023-04-02T11:14:04.298Z,37.38
2023-04-02T11:15:16.849Z,37.50
2023-04-02T11:16:20.871Z,37.35
2023-04-02T11:17:25.417Z,37.28
2023-04-02T11:18:30.793Z,37.26
2023-04-02T11:19:35.249Z,37.44
2023-04-02T11:20:58.257Z,37.29
2023-04-02T11:22:06.652Z,37.40
2023-04-02T11:23:12.965Z,37.45
2023-04-02T11:24:40.819Z,37.56
2023-04-02T11:25:45.951Z,37.57
2023-04-02T11:26:49.773Z,37.74
2023-04-02T11:27:55.254Z,37.62
2023-04-02T11:29:25.180Z,37.68
2023-04-02T11:30:29.356Z,37.75
2023-04-02T11:31:33.613Z,37.69
2023-04-02T11:32:39.711Z,37.74
2023-04-02T11:33:46.057Z,37.72
2023-04-02T11:35:19.252Z,37.78
2023-04-02T11:37:00.060Z,37.82
2023-04-02T11:38:24.151Z,37.75
2023-04-02T11:39:49.780Z,37.79
2023-04-02T11:40:54.070Z,37.71
2023-04-02T11:42:07.216Z,37.73
2023-04-02T11:43:57.759Z,37.70
2023-04-02T11:45:56.272Z,37.70
2023-04-02T11:47:19.121Z,37.59
2023-04-02T11:48:31.441Z,37.37
2023-04-02T11:49:40.413Z,37.32
2023-04-02T11:50:45.536Z,37.45
2023-04-02T11:51:54.371Z,37.45
2023-04-02T11:53:20.182Z,37.54
2023-04-02T11:54:26.985Z,37.37
2023-04-02T11:55:32.481Z,37.39
2023-04-02T11:56:42.610Z,37.44
2023-04-02T11:57:56.665Z,37.40
2023-04-02T11:59:10.936Z,37.49
2023-04-02T12:00:32.601Z,37.37
2023-04-02T12:01:51.313Z,37.06
2023-04-02T12:03:13.893Z,37.34
2023-04-02T12:04:51.935Z,37.13
2023-04-02T12:06:03.751Z,36.87
2023-04-02T12:07:47.463Z,36.82
2023-04-02T12:09:01.691Z,36.83
2023-04-02T12:10:17.104Z,36.95
2023-04-02T12:11:34.218Z,37.00
2023-04-02T12:12:39.814Z,36.59
2023-04-02T12:13:54.608Z,36.21
2023-04-02T12:14:59.306Z,36.77
2023-04-02T12:16:04.955Z,36.79
2023-04-02T12:17:21.066Z,36.93
2023-04-02T12:18:25.884Z,37.12
2023-04-02T12:19:31.205Z,37.21
2023-04-02T12:20:35.788Z,37.18
2023-04-02T12:21:46.798Z,37.21
2023-04-02T12:22:52.758Z,37.18
2023-04-02T12:24:02.860Z,37.16
2023-04-02T12:25:20.222Z,36.85
2023-04-02T12:26:30.827Z,36.75
2023-04-02T12:27:34.516Z,36.94
2023-04-02T12:28:38.244Z,37.06
2023-04-02T12:29:42.297Z,37.01
2023-04-02T12:30:46.649Z,37.00
2023-04-02T12:31:52.768Z,37.06
2023-04-02T12:32:56.414Z,37.12
2023-04-02T12:34:00.157Z,37.02
2023-04-02T12:35:05.681Z,36.90
2023-04-02T12:36:21.158Z,36.97
2023-04-02T12:37:26.619Z,36.96
2023-04-02T12:38:31.566Z,36.87
2023-04-02T12:39:35.856Z,36.59
2023-04-02T12:40:39.503Z,36.37
2023-04-02T12:41:43.147Z,36.62
2023-04-02T12:42:46.817Z,36.64
2023-04-02T12:43:58.318Z,36.91
2023-04-02T12:45:02.363Z,36.89
2023-04-02T12:46:09.015Z,37.07
2023-04-02T12:47:14.991Z,37.15
2023-04-02T12:48:19.052Z,36.96
2023-04-02T12:49:32.067Z,37.17
2023-04-02T12:50:36.153Z,36.92
2023-04-02T12:51:40.429Z,37.11
2023-04-02T12:53:02.082Z,37.19
2023-04-02T12:54:06.456Z,37.21
2023-04-02T12:55:23.353Z,37.20
2023-04-02T12:56:26.936Z,37.20
2023-04-02T12:57:38.940Z,36.72
2023-04-02T12:58:43.625Z,36.98
2023-04-02T12:59:47.294Z,36.92
2023-04-02T13:00:50.915Z,37.06
2023-04-02T13:01:58.812Z,37.06
2023-04-02T13:03:18.595Z,37.09
2023-04-02T13:04:22.449Z,36.78
2023-04-02T13:05:38.245Z,36.94
2023-04-02T13:06:48.367Z,36.81
2023-04-02T13:07:52.027Z,36.50
2023-04-02T13:08:56.189Z,36.36
2023-04-02T13:10:01.525Z,36.21
2023-04-02T13:11:07.089Z,36.10
2023-04-02T13:12:26.237Z,36.08
2023-04-02T13:13:33.663Z,36.41
2023-04-02T13:14:38.228Z,36.39
2023-04-02T13:15:42.427Z,36.68
2023-04-02T13:16:46.338Z,36.72
2023-04-02T13:18:03.431Z,36.81
2023-04-02T13:19:23.675Z,36.82
2023-04-02T13:20:32.212Z,36.89
2023-04-02T13:21:36.284Z,36.75
2023-04-02T13:22:39.902Z,36.85
2023-04-02T13:23:44.016Z,36.93
2023-04-02T13:24:47.679Z,36.70
2023-04-02T13:25:51.962Z,36.58
2023-04-02T13:26:58.279Z,36.72
2023-04-02T13:28:02.638Z,36.68
2023-04-02T13:29:21.446Z,36.21
2023-04-02T13:30:26.778Z,36.43
2023-04-02T13:31:31.296Z,36.49
2023-04-02T13:32:34.956Z,36.70
2023-04-02T13:33:38.760Z,36.74
2023-04-02T13:34:44.021Z,36.57
2023-04-02T13:35:47.693Z,36.73
2023-04-02T13:36:51.372Z,36.76
2023-04-02T13:37:55.102Z,36.85
2023-04-02T13:38:58.975Z,36.92
2023-04-02T13:40:04.244Z,36.94
2023-04-02T13:41:11.842Z,36.96
2023-04-02T13:42:15.546Z,36.77
2023-04-02T13:43:20.799Z,36.81
2023-04-02T13:44:26.119Z,36.89
2023-04-02T13:45:32.001Z,36.95
2023-04-02T13:46:36.313Z,36.41
2023-04-02T13:47:41.220Z,36.50
2023-04-02T13:48:45.121Z,36.46
2023-04-02T13:49:50.469Z,36.41
2023-04-02T13:50:54.366Z,36.27
2023-04-02T13:52:00.237Z,36.42
2023-04-02T13:53:10.234Z,36.60
2023-04-02T13:54:21.153Z,36.24
2023-04-02T13:55:27.896Z,36.52
2023-04-02T13:56:31.650Z,36.71
2023-04-02T13:57:35.557Z,36.76
2023-04-02T13:58:39.459Z,36.75
2023-04-02T13:59:43.103Z,36.86
2023-04-02T14:00:47.914Z,36.60
2023-04-02T14:01:54.584Z,36.61
2023-04-02T14:03:07.148Z,36.48
2023-04-02T14:04:13.808Z,36.34
2023-04-02T14:05:32.410Z,36.45
2023-04-02T14:07:07.132Z,36.45
2023-04-02T14:08:16.305Z,36.50
2023-04-02T14:09:28.016Z,36.36
2023-04-02T14:10:45.336Z,36.24
2023-04-02T14:11:56.647Z,36.37
2023-04-02T14:13:17.191Z,36.55
2023-04-02T14:14:35.161Z,36.66
2023-04-02T14:15:51.166Z,36.53
2023-04-02T14:17:08.595Z,36.46
2023-04-02T14:18:29.221Z,36.51
2023-04-02T14:19:54.137Z,36.62
2023-04-02T14:21:09.156Z,36.24
2023-04-02T14:22:22.362Z,35.89
2023-04-02T14:23:45.756Z,35.74
2023-04-02T14:24:57.938Z,36.06
2023-04-02T14:26:13.677Z,36.32
2023-04-02T14:27:27.948Z,36.02
2023-04-02T14:28:41.879Z,36.32
2023-04-02T14:29:52.389Z,36.18
2023-04-02T14:31:04.253Z,36.15
2023-04-02T14:32:11.430Z,36.10
2023-04-02T14:33:25.477Z,36.10
2023-04-02T14:34:37.007Z,36.06
2023-04-02T14:35:54.507Z,36.02
2023-04-02T14:37:13.682Z,36.18
2023-04-02T14:38:25.723Z,36.25
2023-04-02T14:39:38.744Z,36.12
2023-04-02T14:40:48.409Z,36.53
2023-04-02T14:41:57.624Z,36.48
2023-04-02T14:43:05.660Z,36.60
2023-04-02T14:44:12.211Z,36.67
2023-04-02T14:45:25.749Z,36.62
2023-04-02T14:46:31.485Z,36.58
2023-04-02T14:47:40.347Z,36.55
2023-04-02T14:48:49.328Z,36.49
2023-04-02T14:49:56.712Z,36.46
2023-04-02T14:51:04.596Z,36.34
2023-04-02T14:52:14.942Z,36.42
2023-04-02T14:53:26.272Z,36.17
2023-04-02T14:54:35.292Z,36.31